createdAt,value
2019-01-17T00:00:05.870Z,97846.19
2019-01-17T00:02:55.833Z,97843.81
2019-01-17T00:05:48.804Z,97837.97
2019-01-17T00:08:32.705Z,97836.63
2019-01-17T00:11:34.931Z,97838.98
2019-01-17T00:14:28.517Z,97834.27
2019-01-17T00:17:24.037Z,97834.89
2019-01-17T00:20:19.662Z,97829.63
2019-01-17T00:22:59.095Z,97831.89
2019-01-17T00:25:49.081Z,97828.09
2019-01-17T00:28:24.829Z,97819.34
2019-01-17T00:31:02.412Z,97814.84
2019-01-17T00:33:50.319Z,97813.84
2019-01-17T00:36:41.988Z,97810.76
2019-01-17T00:39:30.596Z,97812.16
2019-01-17T00:42:15.176Z,97811.11
2019-01-17T00:45:16.549Z,97815.75
2019-01-17T00:48:19.837Z,97814.19
2019-01-17T00:51:19.606Z,97799.39
2019-01-17T00:54:12.641Z,97807.88
2019-01-17T00:57:04.308Z,97811.18
2019-01-17T00:59:53.740Z,97812.59
2019-01-17T01:02:32.322Z,97817.97
2019-01-17T01:05:29.609Z,97814.39
2019-01-17T01:08:25.527Z,97811.39
2019-01-17T01:11:08.465Z,97806.97
2019-01-17T01:13:56.643Z,97816.81
2019-01-17T01:16:36.108Z,97817.23
2019-01-17T01:19:26.709Z,97809.76
2019-01-17T01:22:22.857Z,97804.72
2019-01-17T01:25:07.600Z,97803.79
2019-01-17T01:28:03.944Z,97809.92
2019-01-17T01:30:41.480Z,97796.16
2019-01-17T01:33:46.468Z,97794.83
2019-01-17T01:36:49.347Z,97794.41
2019-01-17T01:39:44.708Z,97793.48
2019-01-17T01:42:53.804Z,97793.48
2019-01-17T01:45:27.390Z,97775.72
2019-01-17T01:48:09.672Z,97779.02
2019-01-17T01:51:06.766Z,97784.97
2019-01-17T01:53:52.330Z,97780.64
2019-01-17T01:56:31.743Z,97781.77
2019-01-17T01:59:10.663Z,97788.55
2019-01-17T02:01:43.493Z,97776.75
2019-01-17T02:04:28.713Z,97772.01
2019-01-17T02:07:16.713Z,97771.50
2019-01-17T02:09:46.825Z,97772.71
2019-01-17T02:12:34.527Z,97775.92
2019-01-17T02:15:16.683Z,97754.66
2019-01-17T02:18:06.182Z,97752.56
2019-01-17T02:20:40.630Z,97745.38
2019-01-17T02:23:27.353Z,97748.11
2019-01-17T02:26:10.032Z,97739.19
2019-01-17T02:28:45.873Z,97736.19
2019-01-17T02:31:20.947Z,97741.66
2019-01-17T02:34:07.283Z,97742.98
2019-01-17T02:36:50.861Z,97736.73
2019-01-17T02:39:32.269Z,97734.02
2019-01-17T02:42:11.687Z,97724.81
2019-01-17T02:44:47.420Z,97728.52
2019-01-17T02:47:26.982Z,97720.52
2019-01-17T02:50:08.358Z,97721.84
2019-01-17T02:52:51.145Z,97721.43
2019-01-17T02:55:24.055Z,97709.51
2019-01-17T02:58:08.883Z,97708.09
2019-01-17T03:00:43.202Z,97702.72
2019-01-17T03:03:32.571Z,97695.12
2019-01-17T03:06:07.388Z,97694.86
2019-01-17T03:08:53.415Z,97692.41
2019-01-17T03:11:39.792Z,97690.58
2019-01-17T03:14:29.723Z,97690.79
2019-01-17T03:20:06.353Z,97686.70
2019-01-17T03:22:43.126Z,97683.50
2019-01-17T03:25:31.925Z,97690.50
2019-01-17T03:28:18.235Z,97679.41
2019-01-17T03:31:06.502Z,97669.57
2019-01-17T03:33:44.270Z,97669.04
2019-01-17T03:36:26.778Z,97677.08
2019-01-17T03:39:12.647Z,97672.75
2019-01-17T03:41:48.691Z,97665.58
2019-01-17T03:44:20.140Z,97669.48
2019-01-17T03:47:09.359Z,97663.03
2019-01-17T03:49:47.735Z,97662.31
2019-01-17T03:52:40.777Z,97664.54
2019-01-17T03:55:22.773Z,97663.20
2019-01-17T03:58:06.101Z,97653.37
2019-01-17T04:00:42.407Z,97652.03
2019-01-17T04:03:26.884Z,97648.66
2019-01-17T04:06:05.832Z,97651.83
2019-01-17T04:08:47.609Z,97651.44
2019-01-17T04:11:20.150Z,97645.78
2019-01-17T04:14:02.258Z,97653.98
2019-01-17T04:16:44.592Z,97647.44
2019-01-17T04:19:32.106Z,97643.54
2019-01-17T04:22:02.482Z,97641.58
2019-01-17T04:24:35.752Z,97632.23
2019-01-17T04:27:13.634Z,97631.41
2019-01-17T04:29:47.829Z,97634.71
2019-01-17T04:32:35.478Z,97627.52
2019-01-17T04:35:34.059Z,97623.72
2019-01-17T04:38:37.345Z,97624.25
2019-01-17T04:41:28.304Z,97624.55
2019-01-17T04:44:14.996Z,97625.58
2019-01-17T04:46:59.358Z,97621.67
2019-01-17T04:49:33.625Z,97610.59
2019-01-17T04:52:21.142Z,97612.02
2019-01-17T04:54:52.693Z,97608.34
2019-01-17T04:57:32.952Z,97602.49
2019-01-17T05:00:15.330Z,97603.19
2019-01-17T05:02:46.357Z,97622.89
2019-01-17T05:05:28.277Z,97609.45
2019-01-17T05:08:07.128Z,97604.12
2019-01-17T05:10:44.621Z,97615.31
2019-01-17T05:13:21.595Z,97618.59
2019-01-17T05:15:54.770Z,97613.68
2019-01-17T05:18:32.740Z,97628.23
2019-01-17T05:21:12.323Z,97622.48
2019-01-17T05:24:01.780Z,97623.52
2019-01-17T05:26:38.212Z,97628.65
2019-01-17T05:29:18.123Z,97621.47
2019-01-17T05:31:58.681Z,97620.94
2019-01-17T05:34:39.337Z,97629.88
2019-01-17T05:37:09.995Z,97614.80
2019-01-17T05:39:47.974Z,97622.59
2019-01-17T05:42:38.251Z,97606.27
2019-01-17T05:45:08.212Z,97606.27
2019-01-17T05:47:53.270Z,97608.14
2019-01-17T05:50:26.418Z,97597.56
2019-01-17T05:53:06.432Z,97602.59
2019-01-17T05:55:38.254Z,97599.70
2019-01-17T05:58:15.562Z,97605.55
2019-01-17T06:00:52.380Z,97603.92
2019-01-17T06:03:40.159Z,97603.60
2019-01-17T06:06:22.827Z,97598.89
2019-01-17T06:09:02.567Z,97593.55
2019-01-17T06:12:09.280Z,97596.75
2019-01-17T06:14:48.965Z,97600.95
2019-01-17T06:17:29.581Z,97593.53
2019-01-17T06:20:10.861Z,97586.23
2019-01-17T06:23:01.725Z,97587.59
2019-01-17T06:25:40.590Z,97579.16
2019-01-17T06:28:33.346Z,97582.03
2019-01-17T06:31:17.194Z,97576.07
2019-01-17T06:33:49.671Z,97579.23
2019-01-17T06:36:40.941Z,97567.21
2019-01-17T06:39:12.639Z,97568.88
2019-01-17T06:41:45.282Z,97565.10
2019-01-17T06:44:21.210Z,97559.63
2019-01-17T06:47:03.823Z,97554.42
2019-01-17T06:49:43.751Z,97552.34
2019-01-17T06:52:20.707Z,97554.83
2019-01-17T06:54:51.419Z,97555.94
2019-01-17T06:57:36.690Z,97551.14
2019-01-17T07:00:14.243Z,97547.83
2019-01-17T07:02:57.488Z,97546.42
2019-01-17T07:05:35.730Z,97544.33
2019-01-17T07:08:07.607Z,97545.38
2019-01-17T07:10:50.125Z,97543.41
2019-01-17T07:13:41.167Z,97546.47
2019-01-17T07:16:23.281Z,97537.03
2019-01-17T07:19:00.137Z,97544.84
2019-01-17T07:21:40.198Z,97548.23
2019-01-17T07:24:11.061Z,97552.35
2019-01-17T07:26:48.599Z,97544.52
2019-01-17T07:29:28.900Z,97550.19
2019-01-17T07:32:12.089Z,97547.09
2019-01-17T07:34:50.249Z,97551.09
2019-01-17T07:37:28.293Z,97543.41
2019-01-17T07:40:02.150Z,97539.94
2019-01-17T07:42:35.520Z,97549.57
2019-01-17T07:47:59.399Z,97542.47
2019-01-17T07:50:52.476Z,97547.19
2019-01-17T07:53:40.578Z,97543.00
2019-01-17T07:56:11.378Z,97540.23
2019-01-17T07:58:46.005Z,97543.53
2019-01-17T08:01:23.219Z,97545.19
2019-01-17T08:03:59.244Z,97547.77
2019-01-17T08:06:41.024Z,97552.00
2019-01-17T08:09:17.802Z,97545.66
2019-01-17T08:12:05.138Z,97547.08
2019-01-17T08:14:34.529Z,97546.18
2019-01-17T08:17:28.741Z,97541.77
2019-01-17T08:20:12.064Z,97547.48
2019-01-17T08:22:48.561Z,97546.58
2019-01-17T08:25:30.465Z,97548.95
2019-01-17T08:28:09.343Z,97546.47
2019-01-17T08:30:52.931Z,97552.23
2019-01-17T08:36:33.755Z,97558.17
2019-01-17T08:39:17.133Z,97555.39
2019-01-17T08:42:00.299Z,97554.98
2019-01-17T08:44:35.202Z,97555.40
2019-01-17T08:47:07.280Z,97547.38
2019-01-17T08:49:40.923Z,97546.05
2019-01-17T08:52:23.100Z,97545.36
2019-01-17T08:54:57.604Z,97542.05
2019-01-17T08:57:37.268Z,97546.45
2019-01-17T09:00:21.459Z,97545.63
2019-01-17T09:02:54.835Z,97544.80
2019-01-17T09:05:46.636Z,97537.92
2019-01-17T09:08:19.367Z,97543.25
2019-01-17T09:10:52.422Z,97538.23
2019-01-17T09:13:48.540Z,97545.42
2019-01-17T09:16:13.641Z,97545.38
2019-01-17T09:18:52.942Z,97544.47
2019-01-17T09:21:32.670Z,97537.72
2019-01-17T09:24:10.649Z,97548.94
2019-01-17T09:26:54.639Z,97543.81
2019-01-17T09:29:25.293Z,97543.67
2019-01-17T09:31:57.374Z,97535.48
2019-01-17T09:34:31.487Z,97539.45
2019-01-17T09:37:09.066Z,97535.23
2019-01-17T09:39:45.940Z,97532.45
2019-01-17T09:42:31.631Z,97543.59
2019-01-17T09:45:04.338Z,97546.48
2019-01-17T09:47:41.574Z,97545.22
2019-01-17T09:50:21.118Z,97531.80
2019-01-17T09:52:57.532Z,97544.13
2019-01-17T09:55:41.376Z,97536.46
2019-01-17T09:58:34.276Z,97537.27
2019-01-17T10:01:12.987Z,97524.93
2019-01-17T10:04:01.334Z,97525.33
2019-01-17T10:06:44.828Z,97521.73
2019-01-17T10:09:25.458Z,97518.73
2019-01-17T10:14:50.863Z,97517.16
2019-01-17T10:21:15.670Z,97513.86
2019-01-17T10:24:14.054Z,97505.84
2019-01-17T10:27:23.470Z,97501.39
2019-01-17T10:30:30.416Z,97479.02
2019-01-17T10:33:20.600Z,97476.25
2019-01-17T10:36:13.367Z,97474.96
2019-01-17T10:39:04.549Z,97471.89
2019-01-17T10:41:41.933Z,97476.80
2019-01-17T10:44:25.441Z,97468.11
2019-01-17T10:47:03.549Z,97459.70
2019-01-17T10:49:48.129Z,97449.73
2019-01-17T10:52:38.922Z,97447.80
2019-01-17T10:55:40.802Z,97439.09
2019-01-17T10:58:33.339Z,97429.80
2019-01-17T11:01:22.115Z,97418.72
2019-01-17T11:04:03.200Z,97433.52
2019-01-17T11:06:53.569Z,97429.44
2019-01-17T11:09:41.842Z,97418.14
2019-01-17T11:12:48.812Z,97420.88
2019-01-17T11:15:44.524Z,97412.86
2019-01-17T11:18:56.839Z,97391.31
2019-01-17T11:21:40.071Z,97400.00
2019-01-17T11:24:22.780Z,97392.08
2019-01-17T11:27:11.255Z,97390.61
2019-01-17T11:29:52.003Z,97387.78
2019-01-17T11:32:43.214Z,97395.58
2019-01-17T11:35:43.738Z,97394.21
2019-01-17T11:38:45.238Z,97382.53
2019-01-17T11:42:02.808Z,97370.65
2019-01-17T11:45:12.090Z,97349.41
2019-01-17T11:47:53.242Z,97357.97
2019-01-17T11:50:53.822Z,97344.52
2019-01-17T11:53:56.989Z,97346.91
2019-01-17T11:56:42.828Z,97339.99
2019-01-17T11:59:23.393Z,97325.56
2019-01-17T12:02:17.288Z,97330.63
2019-01-17T12:05:00.420Z,97328.38
2019-01-17T12:07:36.457Z,97326.22
2019-01-17T12:10:10.666Z,97315.03
2019-01-17T12:12:54.814Z,97313.59
2019-01-17T12:15:35.969Z,97312.14
2019-01-17T12:18:14.293Z,97318.45
2019-01-17T12:20:45.858Z,97301.69
2019-01-17T12:23:33.868Z,97301.92
2019-01-17T12:26:11.273Z,97308.00
2019-01-17T12:28:56.546Z,97299.70
2019-01-17T12:31:29.832Z,97312.27
2019-01-17T12:37:18.873Z,97302.56
2019-01-17T12:39:55.704Z,97310.00
2019-01-17T12:42:37.714Z,97308.95
2019-01-17T12:45:26.867Z,97307.94
2019-01-17T12:48:05.621Z,97306.80
2019-01-17T12:50:42.098Z,97300.92
2019-01-17T12:53:33.059Z,97286.30
2019-01-17T12:56:14.882Z,97295.43
2019-01-17T12:59:16.785Z,97280.70
2019-01-17T13:02:05.467Z,97275.65
2019-01-17T13:04:46.254Z,97273.05
2019-01-17T13:07:32.347Z,97278.43
2019-01-17T13:10:16.613Z,97275.50
2019-01-17T13:13:02.086Z,97272.18
2019-01-17T13:15:47.934Z,97272.18
2019-01-17T13:18:29.151Z,97265.87
2019-01-17T13:20:59.481Z,97267.59
2019-01-17T13:23:35.859Z,97269.93
2019-01-17T13:26:12.874Z,97263.23
2019-01-17T13:29:04.689Z,97275.57
2019-01-17T13:31:56.196Z,97270.14
2019-01-17T13:34:29.368Z,97270.98
2019-01-17T13:37:22.746Z,97261.71
2019-01-17T13:40:00.218Z,97274.75
2019-01-17T13:42:38.183Z,97264.31
2019-01-17T13:45:26.175Z,97264.28
2019-01-17T13:48:00.649Z,97265.85
2019-01-17T13:50:42.611Z,97263.02
2019-01-17T13:53:25.607Z,97269.44
2019-01-17T13:56:12.388Z,97268.30
2019-01-17T13:58:45.119Z,97273.15
2019-01-17T14:01:45.515Z,97265.94
2019-01-17T14:04:46.784Z,97269.77
2019-01-17T14:07:32.630Z,97264.95
2019-01-17T14:10:20.675Z,97259.03
2019-01-17T14:13:08.054Z,97266.08
2019-01-17T14:15:51.792Z,97264.08
2019-01-17T14:19:12.495Z,97260.37
2019-01-17T14:24:29.415Z,97246.97
2019-01-17T14:27:41.786Z,97238.10
2019-01-17T14:30:56.619Z,97243.17
2019-01-17T14:34:13.835Z,97235.95
2019-01-17T14:37:06.878Z,97239.52
2019-01-17T14:39:52.311Z,97234.78
2019-01-17T14:42:41.950Z,97243.02
2019-01-17T14:45:24.045Z,97232.80
2019-01-17T14:48:06.031Z,97240.57
2019-01-17T14:50:53.585Z,97235.84
2019-01-17T14:53:33.510Z,97230.38
2019-01-17T14:56:10.074Z,97230.95
2019-01-17T14:58:48.578Z,97236.08
2019-01-17T15:01:35.044Z,97238.02
2019-01-17T15:07:47.293Z,97231.92
2019-01-17T15:10:36.606Z,97228.39
2019-01-17T15:13:23.172Z,97219.01
2019-01-17T15:16:03.584Z,97226.19
2019-01-17T15:18:41.400Z,97221.59
2019-01-17T15:21:17.829Z,97218.83
2019-01-17T15:23:52.842Z,97224.13
2019-01-17T15:26:27.163Z,97215.03
2019-01-17T15:29:09.913Z,97215.81
2019-01-17T15:31:44.342Z,97216.20
2019-01-17T15:34:29.611Z,97216.16
2019-01-17T15:37:07.439Z,97213.83
2019-01-17T15:39:37.901Z,97212.98
2019-01-17T15:42:15.524Z,97216.73
2019-01-17T15:45:02.247Z,97214.80
2019-01-17T15:47:46.703Z,97204.67
2019-01-17T15:50:26.207Z,97194.20
2019-01-17T15:56:28.010Z,97199.97
2019-01-17T15:59:15.879Z,97193.87
2019-01-17T16:01:54.009Z,97196.91
2019-01-17T16:04:32.530Z,97197.81
2019-01-17T16:07:17.174Z,97203.05
2019-01-17T16:10:06.627Z,97197.81
2019-01-17T16:12:56.340Z,97201.48
2019-01-17T16:15:42.242Z,97187.82
2019-01-17T16:21:16.625Z,97205.53
2019-01-17T16:23:58.552Z,97201.77
2019-01-17T16:26:36.312Z,97200.80
2019-01-17T16:29:26.489Z,97205.80
2019-01-17T16:32:04.026Z,97202.02
2019-01-17T16:34:41.006Z,97199.09
2019-01-17T16:37:23.959Z,97197.13
2019-01-17T16:39:54.617Z,97196.96
2019-01-17T16:42:35.675Z,97198.87
2019-01-17T16:45:23.729Z,97194.56
2019-01-17T16:48:00.668Z,97197.13
2019-01-17T16:50:33.985Z,97180.06
2019-01-17T16:53:13.525Z,97181.33
2019-01-17T16:55:52.537Z,97180.22
2019-01-17T16:58:31.823Z,97185.00
2019-01-17T17:04:03.993Z,97188.15
2019-01-17T17:06:43.734Z,97179.98
2019-01-17T17:09:26.280Z,97181.81
2019-01-17T17:12:00.711Z,97176.41
2019-01-17T17:14:45.388Z,97178.12
2019-01-17T17:17:32.450Z,97173.26
2019-01-17T17:20:22.000Z,97170.67
2019-01-17T17:23:02.189Z,97175.80
2019-01-17T17:25:44.328Z,97176.04
2019-01-17T17:28:26.117Z,97174.97
2019-01-17T17:31:00.325Z,97169.22
2019-01-17T17:33:35.634Z,97172.30
2019-01-17T17:36:18.789Z,97178.37
2019-01-17T17:39:04.287Z,97178.64
2019-01-17T17:41:39.211Z,97166.78
2019-01-17T17:44:28.687Z,97177.20
2019-01-17T17:47:05.655Z,97178.88
2019-01-17T17:49:50.756Z,97174.52
2019-01-17T17:52:32.205Z,97171.39
2019-01-17T17:55:06.703Z,97162.42
2019-01-17T17:57:43.899Z,97166.95
2019-01-17T18:00:19.027Z,97160.27
2019-01-17T18:02:56.975Z,97155.42
2019-01-17T18:05:43.990Z,97155.84
2019-01-17T18:08:30.353Z,97160.27
2019-01-17T18:11:09.824Z,97154.89
2019-01-17T18:13:52.101Z,97156.98
2019-01-17T18:16:25.574Z,97158.62
2019-01-17T18:19:15.243Z,97155.49
2019-01-17T18:22:03.603Z,97156.06
2019-01-17T18:24:46.858Z,97160.73
2019-01-17T18:27:28.534Z,97152.67
2019-01-17T18:30:05.061Z,97154.95
2019-01-17T18:32:42.892Z,97156.83
2019-01-17T18:35:27.767Z,97156.25
2019-01-17T18:38:02.746Z,97158.58
2019-01-17T18:40:58.071Z,97155.37
2019-01-17T18:43:54.560Z,97152.80
2019-01-17T18:46:29.964Z,97155.59
2019-01-17T18:59:24.093Z,97142.25
2019-01-17T19:01:59.737Z,97142.72
2019-01-17T19:04:49.505Z,97139.94
2019-01-17T19:07:52.426Z,97140.74
2019-01-17T19:10:26.206Z,97138.12
2019-01-17T19:13:14.746Z,97135.28
2019-01-17T19:16:08.792Z,97135.28
2019-01-17T19:19:05.527Z,97136.39
2019-01-17T19:21:57.142Z,97134.74
2019-01-17T19:24:46.367Z,97125.44
2019-01-17T19:27:24.821Z,97128.17
2019-01-17T19:30:03.786Z,97138.41
2019-01-17T19:32:46.820Z,97133.88
2019-01-17T19:35:45.363Z,97132.65
2019-01-17T19:38:33.231Z,97134.30
2019-01-17T19:41:08.756Z,97133.23
2019-01-17T19:44:04.039Z,97127.78
2019-01-17T19:46:37.760Z,97133.02
2019-01-17T19:49:15.954Z,97135.50
2019-01-17T19:51:54.085Z,97136.50
2019-01-17T19:54:30.123Z,97136.19
2019-01-17T19:57:24.995Z,97134.97
2019-01-17T20:00:03.192Z,97135.44
2019-01-17T20:02:47.631Z,97130.02
2019-01-17T20:05:44.035Z,97135.10
2019-01-17T20:08:30.148Z,97147.73
2019-01-17T20:11:05.492Z,97143.67
2019-01-17T20:13:46.490Z,97141.16
2019-01-17T20:16:22.295Z,97136.83
2019-01-17T20:19:02.769Z,97141.84
2019-01-17T20:21:41.807Z,97135.28
2019-01-17T20:24:38.800Z,97139.00
2019-01-17T20:27:35.741Z,97141.44
2019-01-17T20:30:22.505Z,97144.76
2019-01-17T20:32:54.881Z,97144.76
2019-01-17T20:35:26.833Z,97142.25
2019-01-17T20:37:57.631Z,97135.23
2019-01-17T20:40:30.357Z,97137.78
2019-01-17T20:43:05.705Z,97137.78
2019-01-17T20:45:42.110Z,97134.28
2019-01-17T20:48:20.110Z,97138.58
2019-01-17T20:50:56.097Z,97124.63
2019-01-17T20:53:32.612Z,97133.70
2019-01-17T20:56:01.645Z,97128.86
2019-01-17T20:58:33.003Z,97123.34
2019-01-17T21:01:24.348Z,97123.34
2019-01-17T21:03:57.059Z,97116.97
2019-01-17T21:06:27.474Z,97109.17
2019-01-17T21:08:58.865Z,97120.63
2019-01-17T21:11:29.267Z,97110.35
2019-01-17T21:14:01.777Z,97105.50
2019-01-17T21:16:38.986Z,97105.50
2019-01-17T21:19:29.554Z,97110.16
2019-01-17T21:22:34.477Z,97115.58
2019-01-17T21:25:19.439Z,97117.20
2019-01-17T21:28:02.765Z,97117.08
2019-01-17T21:30:40.551Z,97127.35
2019-01-17T21:33:11.114Z,97127.70
2019-01-17T21:35:54.964Z,97127.70
2019-01-17T21:38:28.227Z,97132.03
2019-01-17T21:41:02.660Z,97119.32
2019-01-17T21:44:01.633Z,97119.32
2019-01-17T21:46:34.174Z,97133.02
2019-01-17T21:49:12.241Z,97146.75
2019-01-17T21:55:25.050Z,97142.77
2019-01-17T21:58:03.863Z,97146.98
2019-01-17T22:00:45.034Z,97134.95
2019-01-17T22:03:47.650Z,97135.81
2019-01-17T22:06:18.584Z,97140.06
2019-01-17T22:08:49.254Z,97136.16
2019-01-17T22:11:19.371Z,97144.00
2019-01-17T22:13:50.895Z,97133.61
2019-01-17T22:16:22.172Z,97140.50
2019-01-17T22:18:52.186Z,97128.41
2019-01-17T22:21:22.340Z,97137.41
2019-01-17T22:23:52.798Z,97131.20
2019-01-17T22:26:23.841Z,97127.29
2019-01-17T22:28:54.243Z,97128.27
2019-01-17T22:31:24.271Z,97129.42
2019-01-17T22:33:58.147Z,97118.13
2019-01-17T22:36:41.299Z,97115.68
2019-01-17T22:39:21.063Z,97104.55
2019-01-17T22:42:11.651Z,97105.88
2019-01-17T22:44:45.666Z,97111.75
2019-01-17T22:50:34.399Z,97103.20
2019-01-17T22:53:20.395Z,97101.56
2019-01-17T22:55:52.837Z,97108.76
2019-01-17T22:58:46.108Z,97106.91
2019-01-17T23:01:36.312Z,97110.09
2019-01-17T23:04:21.357Z,97097.19
2019-01-17T23:13:37.979Z,97092.28
2019-01-17T23:16:23.485Z,97082.12
2019-01-17T23:19:02.090Z,97082.70
2019-01-17T23:24:44.243Z,97076.77
2019-01-17T23:27:27.737Z,97070.55
2019-01-17T23:30:02.403Z,97077.59
2019-01-17T23:32:49.217Z,97071.73
2019-01-17T23:35:30.479Z,97068.86
2019-01-17T23:38:08.919Z,97064.41
2019-01-17T23:40:46.061Z,97049.70
2019-01-17T23:43:27.897Z,97044.11
2019-01-17T23:46:05.480Z,97040.61
2019-01-17T23:52:10.154Z,97036.32
2019-01-17T23:57:51.671Z,97027.75
